createdAt,value
2022-08-20T00:00:14.009Z,15.40
2022-08-20T00:02:42.041Z,15.37
2022-08-20T00:05:08.499Z,15.36
2022-08-20T00:07:34.856Z,15.34
2022-08-20T00:10:01.174Z,15.33
2022-08-20T00:12:27.606Z,15.33
2022-08-20T00:14:55.079Z,15.35
2022-08-20T00:17:21.403Z,15.31
2022-08-20T00:19:47.718Z,15.32
2022-08-20T00:22:14.052Z,15.31
2022-08-20T00:24:40.428Z,15.33
2022-08-20T00:27:06.834Z,15.33
2022-08-20T00:29:33.176Z,15.36
2022-08-20T00:31:59.557Z,15.37
2022-08-20T00:34:25.995Z,15.39
2022-08-20T00:36:52.317Z,15.41
2022-08-20T00:39:18.611Z,15.40
2022-08-20T00:41:45.867Z,15.39
2022-08-20T00:44:14.999Z,15.37
2022-08-20T00:46:42.653Z,15.39
2022-08-20T00:49:09.718Z,15.37
2022-08-20T00:51:41.358Z,15.37
2022-08-20T00:54:16.125Z,15.36
2022-08-20T00:56:45.274Z,15.33
2022-08-20T00:59:14.952Z,15.29
2022-08-20T01:01:55.935Z,15.27
2022-08-20T01:04:24.814Z,15.25
2022-08-20T01:06:51.137Z,15.26
2022-08-20T01:09:17.536Z,15.22
2022-08-20T01:12:04.261Z,15.18
2022-08-20T01:14:33.568Z,15.16
2022-08-20T01:17:02.303Z,15.19
2022-08-20T01:19:31.274Z,15.23
2022-08-20T01:21:59.144Z,15.19
2022-08-20T01:24:36.617Z,15.16
2022-08-20T01:27:04.361Z,15.11
2022-08-20T01:29:34.507Z,15.09
2022-08-20T01:32:02.267Z,15.05
2022-08-20T01:34:29.265Z,15.06
2022-08-20T01:36:57.586Z,15.10
2022-08-20T01:39:25.864Z,15.11
2022-08-20T01:42:31.144Z,15.11
2022-08-20T01:44:57.484Z,15.10
2022-08-20T01:47:29.125Z,15.09
2022-08-20T01:49:59.728Z,15.07
2022-08-20T01:52:38.197Z,15.08
2022-08-20T01:55:04.878Z,15.09
2022-08-20T01:57:31.440Z,15.11
2022-08-20T01:59:57.784Z,15.13
2022-08-20T02:02:25.646Z,15.15
2022-08-20T02:04:52.538Z,15.16
2022-08-20T02:07:21.467Z,15.20
2022-08-20T02:09:48.695Z,15.23
2022-08-20T02:12:15.394Z,15.26
2022-08-20T02:14:44.339Z,15.29
2022-08-20T02:17:11.734Z,15.32
2022-08-20T02:19:43.759Z,15.33
2022-08-20T02:22:33.195Z,15.36
2022-08-20T02:24:59.503Z,15.37
2022-08-20T02:27:25.827Z,15.35
2022-08-20T02:29:52.837Z,15.36
2022-08-20T02:32:32.092Z,15.36
2022-08-20T02:35:02.211Z,15.38
2022-08-20T02:37:28.568Z,15.39
2022-08-20T02:39:55.006Z,15.41
2022-08-20T02:42:21.364Z,15.42
2022-08-20T02:44:47.734Z,15.42
2022-08-20T02:47:14.061Z,15.42
2022-08-20T02:49:40.437Z,15.43
2022-08-20T02:52:06.936Z,15.45
2022-08-20T02:54:33.246Z,15.47
2022-08-20T02:56:59.684Z,15.52
2022-08-20T02:59:26.000Z,15.56
2022-08-20T03:02:00.576Z,15.57
2022-08-20T03:04:27.928Z,15.56
2022-08-20T03:06:54.295Z,15.55
2022-08-20T03:09:20.608Z,15.53
2022-08-20T03:11:46.925Z,15.50
2022-08-20T03:14:13.236Z,15.50
2022-08-20T03:16:39.570Z,15.51
2022-08-20T03:19:05.908Z,15.52
2022-08-20T03:21:32.412Z,15.52
2022-08-20T03:23:58.721Z,15.52
2022-08-20T03:26:25.059Z,15.53
2022-08-20T03:28:51.383Z,15.52
2022-08-20T03:31:17.891Z,15.53
2022-08-20T03:33:52.980Z,15.55
2022-08-20T03:36:22.140Z,15.52
2022-08-20T03:38:55.350Z,15.53
2022-08-20T03:41:21.767Z,15.53
2022-08-20T03:43:48.089Z,15.55
2022-08-20T03:46:22.879Z,15.62
2022-08-20T03:48:50.117Z,15.69
2022-08-20T03:51:26.323Z,15.73
2022-08-20T03:53:52.780Z,15.75
2022-08-20T03:56:19.096Z,15.76
2022-08-20T03:58:46.341Z,15.76
2022-08-20T04:01:12.699Z,15.75
2022-08-20T04:03:59.010Z,15.70
2022-08-20T04:06:26.195Z,15.68
2022-08-20T04:08:53.563Z,15.67
2022-08-20T04:11:19.874Z,15.69
2022-08-20T04:13:46.231Z,15.75
2022-08-20T04:16:14.953Z,15.82
2022-08-20T04:18:43.450Z,15.90
2022-08-20T04:21:24.945Z,15.95
2022-08-20T04:23:56.604Z,16.00
2022-08-20T04:26:23.111Z,16.03
2022-08-20T04:28:55.550Z,16.07
2022-08-20T04:31:25.347Z,16.09
2022-08-20T04:33:52.025Z,16.13
2022-08-20T04:36:18.389Z,16.15
2022-08-20T04:38:50.610Z,16.17
2022-08-20T04:41:23.421Z,16.20
2022-08-20T04:43:50.852Z,16.23
2022-08-20T04:46:17.208Z,16.28
2022-08-20T04:48:48.473Z,16.34
2022-08-20T04:51:17.325Z,16.39
2022-08-20T04:53:45.120Z,16.44
2022-08-20T04:56:19.780Z,16.52
2022-08-20T04:58:51.083Z,16.59
2022-08-20T05:01:17.470Z,16.63
2022-08-20T05:03:43.901Z,16.69
2022-08-20T05:06:11.080Z,16.72
2022-08-20T05:08:38.601Z,16.78
2022-08-20T05:11:29.994Z,16.79
2022-08-20T05:13:53.544Z,16.81
2022-08-20T05:16:20.163Z,16.84
2022-08-20T05:18:52.226Z,16.86
2022-08-20T05:21:19.060Z,16.91
2022-08-20T05:23:45.734Z,16.95
2022-08-20T05:26:12.091Z,17.07
2022-08-20T05:28:57.570Z,17.13
2022-08-20T05:31:31.400Z,17.15
2022-08-20T05:34:00.579Z,17.14
2022-08-20T05:36:26.951Z,17.17
2022-08-20T05:38:53.820Z,17.19
2022-08-20T05:41:28.686Z,17.23
2022-08-20T05:43:56.309Z,17.30
2022-08-20T05:46:23.003Z,17.32
2022-08-20T05:48:49.473Z,17.33
2022-08-20T05:51:15.890Z,17.32
2022-08-20T05:53:42.199Z,17.36
2022-08-20T05:56:11.200Z,17.43
2022-08-20T05:58:37.845Z,17.44
2022-08-20T06:01:04.486Z,17.46
2022-08-20T06:03:49.385Z,17.51
2022-08-20T06:06:18.372Z,17.58
2022-08-20T06:09:02.234Z,17.69
2022-08-20T06:11:28.553Z,17.72
2022-08-20T06:13:54.855Z,17.75
2022-08-20T06:16:21.164Z,17.77
2022-08-20T06:18:47.487Z,17.84
2022-08-20T06:21:13.850Z,17.90
2022-08-20T06:23:54.363Z,17.94
2022-08-20T06:26:29.905Z,17.97
2022-08-20T06:28:56.898Z,17.93
2022-08-20T06:31:23.290Z,18.05
2022-08-20T06:33:49.960Z,18.10
2022-08-20T06:36:19.001Z,18.26
2022-08-20T06:38:46.177Z,18.35
2022-08-20T06:41:12.588Z,18.44
2022-08-20T06:43:38.931Z,18.60
2022-08-20T06:46:05.451Z,18.79
2022-08-20T06:48:31.782Z,18.82
2022-08-20T06:50:58.143Z,18.77
2022-08-20T06:53:25.425Z,18.70
2022-08-20T06:55:54.077Z,18.82
2022-08-20T06:58:37.017Z,18.88
2022-08-20T07:01:09.855Z,18.99
2022-08-20T07:03:38.242Z,19.09
2022-08-20T07:06:05.393Z,19.32
2022-08-20T07:08:31.706Z,19.55
2022-08-20T07:10:59.428Z,19.84
2022-08-20T07:13:25.923Z,19.91
2022-08-20T07:15:54.220Z,20.10
2022-08-20T07:18:28.389Z,20.20
2022-08-20T07:20:56.955Z,20.25
2022-08-20T07:23:24.169Z,20.31
2022-08-20T07:25:50.933Z,20.48
2022-08-20T07:28:19.480Z,20.65
2022-08-20T07:31:12.338Z,20.74
2022-08-20T07:33:41.127Z,20.96
2022-08-20T07:36:07.915Z,21.03
2022-08-20T07:38:34.619Z,21.16
2022-08-20T07:41:02.340Z,21.28
2022-08-20T07:43:29.411Z,21.42
2022-08-20T07:45:57.556Z,21.39
2022-08-20T07:48:31.005Z,21.25
2022-08-20T07:50:59.093Z,21.38
2022-08-20T07:53:25.872Z,21.67
2022-08-20T07:55:58.965Z,21.94
2022-08-20T07:58:27.654Z,22.01
2022-08-20T08:01:00.053Z,22.05
2022-08-20T08:03:39.449Z,22.22
2022-08-20T08:06:14.373Z,22.10
2022-08-20T08:08:41.563Z,21.99
2022-08-20T08:11:08.200Z,21.83
2022-08-20T08:13:35.698Z,21.79
2022-08-20T08:16:04.696Z,21.79
2022-08-20T08:18:37.944Z,21.82
2022-08-20T08:21:05.469Z,21.99
2022-08-20T08:23:32.294Z,21.80
2022-08-20T08:25:59.279Z,22.00
2022-08-20T08:28:28.287Z,22.03
2022-08-20T08:30:54.732Z,22.12
2022-08-20T08:33:28.327Z,22.06
2022-08-20T08:36:05.929Z,22.24
2022-08-20T08:38:34.279Z,22.25
2022-08-20T08:41:08.348Z,22.41
2022-08-20T08:43:34.691Z,22.56
2022-08-20T08:46:02.477Z,22.64
2022-08-20T08:48:34.993Z,22.70
2022-08-20T08:51:02.673Z,22.72
2022-08-20T08:53:32.052Z,22.80
2022-08-20T08:55:59.515Z,22.72
2022-08-20T08:58:27.887Z,22.62
2022-08-20T09:00:56.487Z,22.77
2022-08-20T09:03:29.843Z,22.94
2022-08-20T09:05:59.689Z,22.95
2022-08-20T09:08:29.606Z,23.04
2022-08-20T09:11:01.090Z,23.41
2022-08-20T09:13:27.431Z,23.59
2022-08-20T09:15:53.760Z,23.72
2022-08-20T09:18:20.081Z,23.71
2022-08-20T09:20:46.384Z,23.34
2022-08-20T09:23:12.737Z,23.26
2022-08-20T09:25:39.370Z,23.18
2022-08-20T09:28:05.691Z,23.15
2022-08-20T09:30:32.071Z,23.37
2022-08-20T09:32:59.591Z,23.82
2022-08-20T09:35:26.226Z,23.72
2022-08-20T09:37:53.090Z,23.71
2022-08-20T09:40:21.019Z,23.74
2022-08-20T09:42:48.046Z,23.78
2022-08-20T09:45:15.637Z,23.65
2022-08-20T09:47:55.205Z,23.26
2022-08-20T09:50:24.221Z,23.36
2022-08-20T09:52:53.669Z,23.41
2022-08-20T09:55:24.459Z,23.66
2022-08-20T09:57:51.288Z,23.69
2022-08-20T10:00:21.188Z,23.67
2022-08-20T10:02:47.517Z,23.74
2022-08-20T10:05:14.171Z,23.90
2022-08-20T10:07:40.601Z,24.04
2022-08-20T10:10:08.668Z,23.92
2022-08-20T10:12:35.519Z,23.85
2022-08-20T10:15:01.841Z,23.91
2022-08-20T10:17:28.261Z,24.04
2022-08-20T10:19:54.585Z,24.12
2022-08-20T10:22:21.001Z,24.33
2022-08-20T10:24:47.372Z,24.51
2022-08-20T10:27:13.795Z,24.45
2022-08-20T10:29:43.024Z,24.45
2022-08-20T10:32:14.655Z,24.61
2022-08-20T10:34:41.552Z,24.45
2022-08-20T10:37:08.075Z,24.37
2022-08-20T10:39:35.802Z,24.36
2022-08-20T10:42:02.183Z,24.62
2022-08-20T10:44:28.537Z,24.96
2022-08-20T10:46:57.111Z,25.14
2022-08-20T10:49:23.664Z,25.19
2022-08-20T10:51:49.973Z,25.50
2022-08-20T10:54:16.401Z,25.72
2022-08-20T10:56:42.988Z,25.61
2022-08-20T10:59:09.340Z,25.76
2022-08-20T11:01:36.954Z,25.71
2022-08-20T11:04:03.687Z,25.66
2022-08-20T11:06:30.014Z,25.44
2022-08-20T11:08:56.796Z,25.61
2022-08-20T11:11:23.639Z,26.11
2022-08-20T11:13:50.017Z,26.69
2022-08-20T11:16:16.349Z,27.14
2022-08-20T11:18:47.307Z,27.37
2022-08-20T11:21:14.094Z,27.25
2022-08-20T11:23:40.409Z,27.55
2022-08-20T11:26:06.748Z,27.72
2022-08-20T11:28:33.268Z,28.45
2022-08-20T11:31:00.586Z,28.98
2022-08-20T11:33:27.018Z,29.16
2022-08-20T11:35:53.380Z,29.00
2022-08-20T11:38:19.738Z,28.59
2022-08-20T11:40:48.090Z,28.47
2022-08-20T11:43:16.256Z,28.63
2022-08-20T11:45:44.351Z,28.71
2022-08-20T11:48:10.687Z,28.75
2022-08-20T11:50:37.013Z,28.78
2022-08-20T11:53:03.339Z,29.11
2022-08-20T11:55:30.376Z,29.26
2022-08-20T11:58:00.021Z,29.32
2022-08-20T12:00:32.311Z,29.36
2022-08-20T12:03:00.464Z,30.20
2022-08-20T12:05:27.365Z,30.41
2022-08-20T12:07:53.723Z,30.02
2022-08-20T12:10:20.138Z,30.04
2022-08-20T12:12:46.457Z,29.94
2022-08-20T12:15:12.803Z,30.30
2022-08-20T12:17:39.785Z,30.26
2022-08-20T12:20:11.616Z,29.69
2022-08-20T12:22:37.971Z,29.87
2022-08-20T12:25:05.995Z,30.07
2022-08-20T12:27:32.687Z,29.99
2022-08-20T12:30:00.753Z,30.11
2022-08-20T12:32:28.761Z,29.90
2022-08-20T12:34:55.626Z,29.89
2022-08-20T12:37:24.335Z,29.94
2022-08-20T12:39:52.394Z,29.54
2022-08-20T12:42:19.256Z,29.25
2022-08-20T12:44:45.699Z,29.34
2022-08-20T12:47:13.552Z,29.34
2022-08-20T12:49:41.416Z,29.73
2022-08-20T12:52:08.029Z,29.01
2022-08-20T12:54:34.428Z,28.76
2022-08-20T12:57:01.093Z,28.11
2022-08-20T12:59:29.036Z,27.23
2022-08-20T13:01:58.297Z,26.66
2022-08-20T13:04:40.207Z,26.39
2022-08-20T13:07:06.614Z,26.40
2022-08-20T13:09:37.872Z,26.44
2022-08-20T13:12:07.225Z,26.10
2022-08-20T13:14:33.653Z,26.11
2022-08-20T13:17:01.048Z,25.86
2022-08-20T13:19:28.276Z,25.85
2022-08-20T13:21:55.053Z,26.14
2022-08-20T13:24:22.173Z,26.40
2022-08-20T13:26:49.101Z,26.97
2022-08-20T13:29:15.989Z,27.32
2022-08-20T13:31:42.475Z,27.93
2022-08-20T13:34:09.150Z,28.78
2022-08-20T13:36:35.901Z,29.33
2022-08-20T13:39:04.232Z,29.77
2022-08-20T13:41:30.564Z,29.30
2022-08-20T13:43:57.037Z,28.41
2022-08-20T13:46:23.517Z,27.78
2022-08-20T13:48:50.066Z,27.41
2022-08-20T13:51:19.249Z,26.83
2022-08-20T13:53:48.129Z,27.26
2022-08-20T13:56:14.557Z,27.96
2022-08-20T13:58:41.041Z,27.65
2022-08-20T14:01:07.513Z,27.52
2022-08-20T14:03:35.209Z,28.57
2022-08-20T14:06:02.874Z,29.23
2022-08-20T14:08:29.239Z,29.66
2022-08-20T14:10:55.841Z,28.62
2022-08-20T14:13:23.868Z,27.57
2022-08-20T14:15:50.230Z,26.62
2022-08-20T14:18:16.825Z,26.37
2022-08-20T14:20:45.429Z,26.71
2022-08-20T14:23:12.119Z,27.34
2022-08-20T14:25:38.450Z,27.32
2022-08-20T14:28:12.708Z,27.80
2022-08-20T14:30:39.919Z,27.49
2022-08-20T14:33:06.267Z,28.06
2022-08-20T14:35:32.584Z,28.71
2022-08-20T14:38:01.733Z,28.88
2022-08-20T14:40:31.783Z,28.41
2022-08-20T14:42:58.259Z,28.39
2022-08-20T14:45:25.316Z,28.47
2022-08-20T14:47:54.134Z,28.70
2022-08-20T14:50:26.033Z,28.86
2022-08-20T14:52:53.356Z,28.14
2022-08-20T14:55:21.080Z,27.07
2022-08-20T14:57:47.906Z,27.27
2022-08-20T15:00:18.475Z,27.24
2022-08-20T15:02:45.594Z,27.55
2022-08-20T15:05:12.262Z,27.89
2022-08-20T15:07:40.029Z,28.26
2022-08-20T15:10:08.471Z,28.25
2022-08-20T15:12:37.769Z,27.89
2022-08-20T15:15:15.923Z,27.70
2022-08-20T15:17:47.363Z,28.04
2022-08-20T15:20:19.688Z,28.04
2022-08-20T15:22:47.275Z,27.58
2022-08-20T15:25:14.993Z,27.54
2022-08-20T15:27:41.974Z,26.94
2022-08-20T15:30:12.996Z,26.21
2022-08-20T15:32:41.316Z,25.64
2022-08-20T15:35:09.923Z,25.30
2022-08-20T15:37:38.741Z,25.04
2022-08-20T15:40:08.978Z,24.81
2022-08-20T15:42:36.004Z,24.65
2022-08-20T15:45:02.409Z,24.36
2022-08-20T15:47:30.788Z,24.01
2022-08-20T15:50:02.466Z,23.62
2022-08-20T15:52:31.717Z,23.56
2022-08-20T15:54:58.473Z,23.40
2022-08-20T15:57:24.964Z,23.24
2022-08-20T16:00:09.692Z,23.14
2022-08-20T16:02:45.073Z,23.08
2022-08-20T16:05:17.855Z,22.96
2022-08-20T16:08:03.284Z,22.80
2022-08-20T16:10:48.360Z,22.69
2022-08-20T16:13:29.969Z,22.53
2022-08-20T16:15:59.427Z,22.56
2022-08-20T16:18:27.634Z,22.44
2022-08-20T16:20:54.866Z,22.37
2022-08-20T16:23:28.967Z,22.25
2022-08-20T16:25:58.298Z,22.16
2022-08-20T16:28:32.621Z,22.06
2022-08-20T16:31:02.474Z,22.01
2022-08-20T16:33:42.518Z,21.94
2022-08-20T16:36:10.812Z,21.78
2022-08-20T16:38:37.113Z,21.70
2022-08-20T16:41:10.603Z,21.63
2022-08-20T16:43:39.880Z,21.64
2022-08-20T16:46:14.973Z,21.48
2022-08-20T16:48:45.106Z,21.42
2022-08-20T16:51:20.628Z,21.39
2022-08-20T16:53:46.943Z,21.34
2022-08-20T16:56:13.388Z,21.33
2022-08-20T16:58:39.755Z,21.25
2022-08-20T17:01:08.251Z,21.22
2022-08-20T17:03:40.289Z,21.10
2022-08-20T17:06:39.254Z,21.01
2022-08-20T17:09:10.868Z,20.92
2022-08-20T17:11:37.387Z,20.86
2022-08-20T17:14:06.649Z,20.81
2022-08-20T17:16:36.161Z,20.75
2022-08-20T17:19:11.117Z,20.65
2022-08-20T17:21:38.766Z,20.63
2022-08-20T17:24:09.382Z,20.59
2022-08-20T17:26:45.218Z,20.58
2022-08-20T17:29:21.166Z,20.52
2022-08-20T17:31:52.708Z,20.47
2022-08-20T17:34:22.160Z,20.44
2022-08-20T17:36:51.521Z,20.38
2022-08-20T17:39:19.301Z,20.38
2022-08-20T17:41:52.733Z,20.41
2022-08-20T17:44:24.899Z,20.43
2022-08-20T17:46:53.604Z,20.43
2022-08-20T17:49:33.445Z,20.42
2022-08-20T17:52:02.656Z,20.36
2022-08-20T17:54:37.087Z,20.32
2022-08-20T17:57:05.466Z,20.25
2022-08-20T17:59:59.883Z,20.12
2022-08-20T18:02:27.338Z,20.01
2022-08-20T18:04:55.322Z,19.92
2022-08-20T18:07:24.594Z,19.84
2022-08-20T18:09:57.533Z,19.72
2022-08-20T18:12:32.750Z,19.59
2022-08-20T18:15:15.267Z,19.48
2022-08-20T18:17:47.336Z,19.36
2022-08-20T18:20:28.954Z,19.32
2022-08-20T18:22:58.471Z,19.22
2022-08-20T18:25:24.929Z,19.15
2022-08-20T18:27:52.585Z,19.09
2022-08-20T18:30:21.198Z,19.02
2022-08-20T18:32:49.185Z,19.01
2022-08-20T18:35:24.431Z,18.92
2022-08-20T18:37:50.867Z,18.82
2022-08-20T18:40:17.192Z,18.74
2022-08-20T18:42:43.801Z,18.65
2022-08-20T18:45:10.209Z,18.54
2022-08-20T18:47:36.507Z,18.47
2022-08-20T18:50:16.066Z,18.38
2022-08-20T18:52:45.079Z,18.28
2022-08-20T18:55:31.603Z,18.18
2022-08-20T18:58:02.844Z,18.14
2022-08-20T19:00:43.705Z,18.05
2022-08-20T19:03:10.001Z,18.01
2022-08-20T19:05:42.777Z,17.92
2022-08-20T19:08:09.420Z,17.86
2022-08-20T19:10:51.095Z,17.78
2022-08-20T19:13:36.213Z,17.73
2022-08-20T19:16:05.840Z,17.66
2022-08-20T19:18:37.444Z,17.59
2022-08-20T19:21:04.412Z,17.53
2022-08-20T19:23:33.209Z,17.47
2022-08-20T19:26:04.575Z,17.44
2022-08-20T19:28:49.754Z,17.37
2022-08-20T19:31:18.302Z,17.28
2022-08-20T19:33:46.808Z,17.21
2022-08-20T19:36:17.397Z,17.16
2022-08-20T19:38:50.388Z,17.10
2022-08-20T19:41:21.471Z,17.07
2022-08-20T19:43:58.294Z,16.97
2022-08-20T19:46:36.400Z,16.92
2022-08-20T19:49:12.255Z,16.87
2022-08-20T19:51:54.599Z,16.84
2022-08-20T19:54:21.880Z,16.79
2022-08-20T19:56:48.525Z,16.76
2022-08-20T19:59:23.460Z,16.74
2022-08-20T20:02:00.074Z,16.72
2022-08-20T20:04:29.755Z,16.72
2022-08-20T20:06:58.275Z,16.68
2022-08-20T20:09:26.379Z,16.66
2022-08-20T20:11:57.202Z,16.62
2022-08-20T20:14:31.188Z,16.58
2022-08-20T20:16:57.871Z,16.58
2022-08-20T20:19:27.137Z,16.55
2022-08-20T20:22:18.989Z,16.53
2022-08-20T20:24:47.966Z,16.47
2022-08-20T20:27:22.137Z,16.43
2022-08-20T20:29:48.653Z,16.38
2022-08-20T20:32:19.341Z,16.32
2022-08-20T20:34:55.287Z,16.24
2022-08-20T20:37:48.891Z,16.18
2022-08-20T20:40:22.722Z,16.16
2022-08-20T20:43:03.858Z,16.10
2022-08-20T20:45:35.450Z,16.04
2022-08-20T20:48:10.515Z,15.95
2022-08-20T20:50:40.304Z,15.90
2022-08-20T20:53:06.865Z,15.85
2022-08-20T20:55:35.246Z,15.81
2022-08-20T20:58:02.551Z,15.74
2022-08-20T21:00:32.504Z,15.69
2022-08-20T21:03:00.303Z,15.65
2022-08-20T21:05:30.314Z,15.60
2022-08-20T21:07:58.631Z,15.55
2022-08-20T21:10:27.146Z,15.50
2022-08-20T21:12:53.669Z,15.39
2022-08-20T21:15:21.132Z,15.30
2022-08-20T21:17:47.993Z,15.20
2022-08-20T21:20:17.693Z,15.17
2022-08-20T21:22:44.046Z,15.14
2022-08-20T21:25:10.411Z,15.13
2022-08-20T21:27:36.769Z,15.14
2022-08-20T21:30:04.272Z,15.12
2022-08-20T21:32:30.601Z,15.10
2022-08-20T21:34:56.974Z,15.11
2022-08-20T21:37:23.438Z,15.09
2022-08-20T21:39:49.876Z,15.09
2022-08-20T21:42:28.455Z,15.07
2022-08-20T21:44:56.352Z,15.06
2022-08-20T21:47:22.821Z,15.06
2022-08-20T21:49:49.126Z,15.05
2022-08-20T21:52:15.465Z,15.00
2022-08-20T21:54:41.812Z,14.90
2022-08-20T21:57:12.889Z,14.80
2022-08-20T21:59:39.222Z,14.69
2022-08-20T22:02:05.608Z,14.61
2022-08-20T22:04:35.375Z,14.55
2022-08-20T22:07:02.081Z,14.54
2022-08-20T22:09:28.455Z,14.55
2022-08-20T22:11:57.357Z,14.57
2022-08-20T22:14:27.506Z,14.54
2022-08-20T22:16:53.831Z,14.47
2022-08-20T22:19:20.296Z,14.43
2022-08-20T22:21:46.779Z,14.38
2022-08-20T22:24:13.455Z,14.37
2022-08-20T22:26:40.440Z,14.35
2022-08-20T22:29:08.216Z,14.35
2022-08-20T22:31:36.878Z,14.35
2022-08-20T22:34:03.407Z,14.36
2022-08-20T22:36:29.816Z,14.33
2022-08-20T22:38:56.188Z,14.33
2022-08-20T22:41:23.156Z,14.34
2022-08-20T22:43:55.704Z,14.31
2022-08-20T22:46:24.017Z,14.28
2022-08-20T22:48:52.832Z,14.25
2022-08-20T22:51:26.694Z,14.24
2022-08-20T22:53:53.148Z,14.21
2022-08-20T22:56:19.857Z,14.20
2022-08-20T22:58:48.372Z,14.20
2022-08-20T23:01:16.855Z,14.20
2022-08-20T23:03:43.387Z,14.18
2022-08-20T23:06:10.485Z,14.13
2022-08-20T23:08:37.988Z,14.10
2022-08-20T23:11:04.387Z,14.05
2022-08-20T23:13:30.691Z,14.03
2022-08-20T23:15:57.276Z,14.00
2022-08-20T23:18:23.787Z,13.97
2022-08-20T23:20:52.663Z,13.95
2022-08-20T23:23:19.250Z,13.91
2022-08-20T23:25:45.770Z,13.90
2022-08-20T23:28:17.893Z,13.86
2022-08-20T23:30:44.647Z,13.84
2022-08-20T23:33:11.100Z,13.83
2022-08-20T23:35:37.828Z,13.79
2022-08-20T23:38:04.164Z,13.77
2022-08-20T23:40:31.122Z,13.76
2022-08-20T23:42:57.705Z,13.75
2022-08-20T23:45:26.443Z,13.70
2022-08-20T23:47:52.891Z,13.63
2022-08-20T23:50:21.363Z,13.58
2022-08-20T23:52:50.674Z,13.53
2022-08-20T23:55:18.107Z,13.46
2022-08-20T23:57:44.587Z,13.41
